Sabzevar Airport

Airport
ICAO code: 
OIMS
IATA Code: 
AFZ
Summary
ICAO Region: 
MID
Territory: 
Location: 
Sabzevar, Razavi Khorasan Province
Serving: 
Sabzevar
Elevation: 
3010 ft
Coordinates: 
Aerial View: 
36° 10' 16.48" N, 57° 36' 11.991" E
Metar
Observation
OIMS 261900Z 09014KT 9999 FEW035 33/03 Q1007
Station
Sabzevar
Date/Time
2022-06-26 19:00:00
Wind direction
90°
Wind speed
14 kts
Lowest cloud amount
few clouds
Temperature
33°C
Dew point
3°C
Humidity
15%
QNH
1007 hPa
Weather condition
n/a

Airport located 7km south west of the city of Sabzevar in Iran.

Climatology

Cold semi-arid climate (Köppen climate classification Bsk).

Runways

Designator Length Width Surface Rops
9/27 3178 45 ASP No/No
Airport map: 
Aerial View: 

SKYbrary Partners:

Safety knowledge contributed by: